Hovedside
METAR-TAF:

METAR-TAF

Lufthavner :

Skellefteå lufthavn

Skellefteå, Sverige

breddegrad: 64-38N, lengdegrad: 021-05E, høyde over havet: 49 m

Gjeldene værobservasjon

Denne rapporten ble laget for 35 minutter siden, klokken 04:20 UTC
Vind 8 kt fra Vest
Temperatur 11°C
Luftfuktighet 66%
Trykk 1002 hPa
Sikt 10 km eller mer
ingen skyer under 1500 m og ingen bygeskyer

METAR: ESNS 210420Z 27008KT CAVOK 11/05 Q1002

Tid: 06:55 (04:55 UTC)

Varsel

Denne rapporten ble laget for 1 time og 25 minutter siden, klokken 03:30 UTC
Varsel gyldig fra 21. klokken 04 UTC til 21. klokken 12 UTC
Vind 9 kt fra Vest
Sikt 10 km eller mer
ingen skyer under 1500 m og ingen bygeskyer

TAF: ESNS 210330Z 2104/2112 27009KT CAVOK

Værobservasjoner og værvarsel for over 4000 flyplasser (METAR- og TAF-rapporter).

Tilgjengelige stasjoner er representert av de røde og gule prikkene på kartet.

Hold musepekeren over prikken for å se navnet på stasjonen.

Klikk så for å se værobservasjoner og -varsler.

For å forandre kartet kan du klikke på den grønne knappen med svart kryss for å zoome inn, på den grønne knappen med strek for å zoome ut, eller på de grønne pilene for å se tilstøtende kart.


METAR-TAF: